sensor_id;sensor_type;location;lat;lon;timestamp;temperature;humidity
23744;DHT22;12052;53.478;10.182;2024-03-17T00:00:14;4.30;99.90
23744;DHT22;12052;53.478;10.182;2024-03-17T00:02:41;4.30;99.90
23744;DHT22;12052;53.478;10.182;2024-03-17T00:05:07;4.30;99.90
23744;DHT22;12052;53.478;10.182;2024-03-17T00:07:33;4.30;99.90
23744;DHT22;12052;53.478;10.182;2024-03-17T00:09:58;4.20;99.90
23744;DHT22;12052;53.478;10.182;2024-03-17T00:12:24;4.20;99.90
23744;DHT22;12052;53.478;10.182;2024-03-17T00:14:50;4.20;99.90
23744;DHT22;12052;53.478;10.182;2024-03-17T00:17:15;4.20;99.90
23744;DHT22;12052;53.478;10.182;2024-03-17T00:19:41;4.20;99.90
23744;DHT22;12052;53.478;10.182;2024-03-17T00:22:06;4.20;99.90
23744;DHT22;12052;53.478;10.182;2024-03-17T00:24:35;4.10;99.90
23744;DHT22;12052;53.478;10.182;2024-03-17T00:27:03;4.10;99.90
23744;DHT22;12052;53.478;10.182;2024-03-17T00:29:29;4.10;99.90
23744;DHT22;12052;53.478;10.182;2024-03-17T00:31:54;4.10;99.90
23744;DHT22;12052;53.478;10.182;2024-03-17T00:34:20;4.10;99.90
23744;DHT22;12052;53.478;10.182;2024-03-17T00:36:46;4.10;99.90
23744;DHT22;12052;53.478;10.182;2024-03-17T00:39:12;4.00;99.90
23744;DHT22;12052;53.478;10.182;2024-03-17T00:41:38;4.10;99.90
23744;DHT22;12052;53.478;10.182;2024-03-17T00:44:04;4.00;99.90
23744;DHT22;12052;53.478;10.182;2024-03-17T00:46:29;4.00;99.90
23744;DHT22;12052;53.478;10.182;2024-03-17T00:48:55;4.00;99.90
23744;DHT22;12052;53.478;10.182;2024-03-17T00:51:21;4.00;99.90
23744;DHT22;12052;53.478;10.182;2024-03-17T00:53:47;4.00;99.90
23744;DHT22;12052;53.478;10.182;2024-03-17T00:56:12;3.90;99.90
23744;DHT22;12052;53.478;10.182;2024-03-17T00:58:38;3.90;99.90
23744;DHT22;12052;53.478;10.182;2024-03-17T01:01:04;3.90;99.90
23744;DHT22;12052;53.478;10.182;2024-03-17T01:03:29;3.80;99.90
23744;DHT22;12052;53.478;10.182;2024-03-17T01:05:55;3.80;99.90
23744;DHT22;12052;53.478;10.182;2024-03-17T01:08:21;3.90;99.90
23744;DHT22;12052;53.478;10.182;2024-03-17T01:10:47;3.90;99.90
23744;DHT22;12052;53.478;10.182;2024-03-17T01:13:15;3.90;99.90
23744;DHT22;12052;53.478;10.182;2024-03-17T01:15:41;3.90;99.90
23744;DHT22;12052;53.478;10.182;2024-03-17T01:18:07;4.00;99.90
23744;DHT22;12052;53.478;10.182;2024-03-17T01:20:35;4.00;99.90
23744;DHT22;12052;53.478;10.182;2024-03-17T01:23:03;4.00;99.90
23744;DHT22;12052;53.478;10.182;2024-03-17T01:25:28;4.00;99.90
23744;DHT22;12052;53.478;10.182;2024-03-17T01:27:55;4.00;99.90
23744;DHT22;12052;53.478;10.182;2024-03-17T01:30:22;4.00;99.90
23744;DHT22;12052;53.478;10.182;2024-03-17T01:32:47;4.00;99.90
23744;DHT22;12052;53.478;10.182;2024-03-17T01:35:14;4.00;99.90
23744;DHT22;12052;53.478;10.182;2024-03-17T01:37:40;4.10;99.90
23744;DHT22;12052;53.478;10.182;2024-03-17T01:40:06;4.10;99.90
23744;DHT22;12052;53.478;10.182;2024-03-17T01:42:36;4.10;99.90
23744;DHT22;12052;53.478;10.182;2024-03-17T01:45:27;4.20;99.90
23744;DHT22;12052;53.478;10.182;2024-03-17T01:47:54;4.20;99.90
23744;DHT22;12052;53.478;10.182;2024-03-17T01:50:24;4.20;99.90
23744;DHT22;12052;53.478;10.182;2024-03-17T01:52:52;4.20;99.90
23744;DHT22;12052;53.478;10.182;2024-03-17T01:55:20;4.30;99.90
23744;DHT22;12052;53.478;10.182;2024-03-17T01:57:45;4.30;99.90
23744;DHT22;12052;53.478;10.182;2024-03-17T02:00:11;4.30;99.90
23744;DHT22;12052;53.478;10.182;2024-03-17T02:02:38;4.20;99.90
23744;DHT22;12052;53.478;10.182;2024-03-17T02:05:03;4.20;99.90
23744;DHT22;12052;53.478;10.182;2024-03-17T02:07:29;4.10;99.90
23744;DHT22;12052;53.478;10.182;2024-03-17T02:09:56;4.00;99.90
23744;DHT22;12052;53.478;10.182;2024-03-17T02:12:22;4.00;99.90
23744;DHT22;12052;53.478;10.182;2024-03-17T02:14:48;3.90;99.90
23744;DHT22;12052;53.478;10.182;2024-03-17T02:17:14;3.90;99.90
23744;DHT22;12052;53.478;10.182;2024-03-17T02:19:39;3.80;99.90
23744;DHT22;12052;53.478;10.182;2024-03-17T02:22:13;3.70;99.90
23744;DHT22;12052;53.478;10.182;2024-03-17T02:24:38;3.70;99.90
23744;DHT22;12052;53.478;10.182;2024-03-17T02:27:04;3.60;99.90
23744;DHT22;12052;53.478;10.182;2024-03-17T02:29:30;3.60;99.90
23744;DHT22;12052;53.478;10.182;2024-03-17T02:31:55;3.60;99.90
23744;DHT22;12052;53.478;10.182;2024-03-17T02:34:21;3.70;99.90
23744;DHT22;12052;53.478;10.182;2024-03-17T02:36:46;3.70;99.90
23744;DHT22;12052;53.478;10.182;2024-03-17T02:39:12;3.70;99.90
23744;DHT22;12052;53.478;10.182;2024-03-17T02:41:56;3.70;99.90
23744;DHT22;12052;53.478;10.182;2024-03-17T02:44:22;3.70;99.90
23744;DHT22;12052;53.478;10.182;2024-03-17T02:46:47;3.70;99.90
23744;DHT22;12052;53.478;10.182;2024-03-17T02:49:13;3.70;99.90
23744;DHT22;12052;53.478;10.182;2024-03-17T02:51:39;3.70;99.90
23744;DHT22;12052;53.478;10.182;2024-03-17T02:54:05;3.70;99.90
23744;DHT22;12052;53.478;10.182;2024-03-17T02:56:31;3.70;99.90
23744;DHT22;12052;53.478;10.182;2024-03-17T02:58:57;3.70;99.90
23744;DHT22;12052;53.478;10.182;2024-03-17T03:01:23;3.60;99.90
23744;DHT22;12052;53.478;10.182;2024-03-17T03:03:48;3.60;99.90
23744;DHT22;12052;53.478;10.182;2024-03-17T03:06:16;3.60;99.90
23744;DHT22;12052;53.478;10.182;2024-03-17T03:08:45;3.50;99.90
23744;DHT22;12052;53.478;10.182;2024-03-17T03:11:15;3.50;99.90
23744;DHT22;12052;53.478;10.182;2024-03-17T03:13:43;3.40;99.90
23744;DHT22;12052;53.478;10.182;2024-03-17T03:16:13;3.30;99.90
23744;DHT22;12052;53.478;10.182;2024-03-17T03:18:41;3.30;99.90
23744;DHT22;12052;53.478;10.182;2024-03-17T03:21:10;3.20;99.90
23744;DHT22;12052;53.478;10.182;2024-03-17T03:23:36;3.20;99.90
23744;DHT22;12052;53.478;10.182;2024-03-17T03:26:03;3.10;99.90
23744;DHT22;12052;53.478;10.182;2024-03-17T03:28:32;3.10;99.90
23744;DHT22;12052;53.478;10.182;2024-03-17T03:30:59;3.00;99.90
23744;DHT22;12052;53.478;10.182;2024-03-17T03:33:24;3.00;99.90
23744;DHT22;12052;53.478;10.182;2024-03-17T03:35:50;2.90;99.90
23744;DHT22;12052;53.478;10.182;2024-03-17T03:38:17;2.80;99.90
23744;DHT22;12052;53.478;10.182;2024-03-17T03:40:43;2.80;99.90
23744;DHT22;12052;53.478;10.182;2024-03-17T03:43:12;2.80;99.90
23744;DHT22;12052;53.478;10.182;2024-03-17T03:45:39;2.70;99.90
23744;DHT22;12052;53.478;10.182;2024-03-17T03:48:06;2.60;99.90
23744;DHT22;12052;53.478;10.182;2024-03-17T03:50:31;2.60;99.90
23744;DHT22;12052;53.478;10.182;2024-03-17T03:52:58;2.50;99.90
23744;DHT22;12052;53.478;10.182;2024-03-17T03:55:24;2.50;99.90
23744;DHT22;12052;53.478;10.182;2024-03-17T03:57:50;2.50;99.90
23744;DHT22;12052;53.478;10.182;2024-03-17T04:00:18;2.40;99.90
23744;DHT22;12052;53.478;10.182;2024-03-17T04:02:51;2.40;99.90
23744;DHT22;12052;53.478;10.182;2024-03-17T04:05:18;2.30;99.90
23744;DHT22;12052;53.478;10.182;2024-03-17T04:07:45;2.30;99.90
23744;DHT22;12052;53.478;10.182;2024-03-17T04:10:12;2.20;99.90
23744;DHT22;12052;53.478;10.182;2024-03-17T04:12:38;2.20;99.90
23744;DHT22;12052;53.478;10.182;2024-03-17T04:15:04;2.20;99.90
23744;DHT22;12052;53.478;10.182;2024-03-17T04:17:32;2.20;99.90
23744;DHT22;12052;53.478;10.182;2024-03-17T04:19:58;2.10;99.90
23744;DHT22;12052;53.478;10.182;2024-03-17T04:22:23;2.10;99.90
23744;DHT22;12052;53.478;10.182;2024-03-17T04:24:49;2.00;99.90
23744;DHT22;12052;53.478;10.182;2024-03-17T04:27:22;2.00;99.90
23744;DHT22;12052;53.478;10.182;2024-03-17T04:29:49;2.00;99.90
23744;DHT22;12052;53.478;10.182;2024-03-17T04:32:15;1.90;99.90
23744;DHT22;12052;53.478;10.182;2024-03-17T04:34:40;1.90;99.90
23744;DHT22;12052;53.478;10.182;2024-03-17T04:37:06;1.80;99.90
23744;DHT22;12052;53.478;10.182;2024-03-17T04:39:31;1.80;99.90
23744;DHT22;12052;53.478;10.182;2024-03-17T04:41:57;1.90;99.90
23744;DHT22;12052;53.478;10.182;2024-03-17T04:44:22;1.90;99.90
23744;DHT22;12052;53.478;10.182;2024-03-17T04:46:48;1.90;99.90
23744;DHT22;12052;53.478;10.182;2024-03-17T04:49:14;1.90;99.90
23744;DHT22;12052;53.478;10.182;2024-03-17T04:51:40;2.00;99.90
23744;DHT22;12052;53.478;10.182;2024-03-17T04:54:05;2.10;99.90
23744;DHT22;12052;53.478;10.182;2024-03-17T04:56:33;2.10;99.90
23744;DHT22;12052;53.478;10.182;2024-03-17T04:58:59;2.10;99.90
23744;DHT22;12052;53.478;10.182;2024-03-17T05:01:25;2.20;99.90
23744;DHT22;12052;53.478;10.182;2024-03-17T05:03:53;2.30;99.90
23744;DHT22;12052;53.478;10.182;2024-03-17T05:06:19;2.30;99.90
23744;DHT22;12052;53.478;10.182;2024-03-17T05:08:45;2.40;99.90
23744;DHT22;12052;53.478;10.182;2024-03-17T05:11:10;2.40;99.90
23744;DHT22;12052;53.478;10.182;2024-03-17T05:13:37;2.40;99.90
23744;DHT22;12052;53.478;10.182;2024-03-17T05:16:05;2.50;99.90
23744;DHT22;12052;53.478;10.182;2024-03-17T05:18:31;2.50;99.90
23744;DHT22;12052;53.478;10.182;2024-03-17T05:21:01;2.50;99.90
23744;DHT22;12052;53.478;10.182;2024-03-17T05:23:28;2.50;99.90
23744;DHT22;12052;53.478;10.182;2024-03-17T05:25:54;2.50;99.90
23744;DHT22;12052;53.478;10.182;2024-03-17T05:28:20;2.50;99.90
23744;DHT22;12052;53.478;10.182;2024-03-17T05:30:46;2.50;99.90
23744;DHT22;12052;53.478;10.182;2024-03-17T05:33:11;2.50;99.90
23744;DHT22;12052;53.478;10.182;2024-03-17T05:35:37;2.50;99.90
23744;DHT22;12052;53.478;10.182;2024-03-17T05:38:03;2.50;99.90
23744;DHT22;12052;53.478;10.182;2024-03-17T05:40:29;2.50;99.90
23744;DHT22;12052;53.478;10.182;2024-03-17T05:42:56;2.60;99.90
23744;DHT22;12052;53.478;10.182;2024-03-17T05:45:22;2.60;99.90
23744;DHT22;12052;53.478;10.182;2024-03-17T05:47:49;2.60;99.90
23744;DHT22;12052;53.478;10.182;2024-03-17T05:50:15;2.60;99.90
23744;DHT22;12052;53.478;10.182;2024-03-17T05:52:41;2.60;99.90
23744;DHT22;12052;53.478;10.182;2024-03-17T05:55:07;2.60;99.90
23744;DHT22;12052;53.478;10.182;2024-03-17T05:57:33;2.60;99.90
23744;DHT22;12052;53.478;10.182;2024-03-17T05:59:58;2.60;99.90
23744;DHT22;12052;53.478;10.182;2024-03-17T06:02:24;2.60;99.90
23744;DHT22;12052;53.478;10.182;2024-03-17T06:04:49;2.50;99.90
23744;DHT22;12052;53.478;10.182;2024-03-17T06:07:15;2.60;99.90
23744;DHT22;12052;53.478;10.182;2024-03-17T06:09:41;2.50;99.90
23744;DHT22;12052;53.478;10.182;2024-03-17T06:12:06;2.60;99.90
23744;DHT22;12052;53.478;10.182;2024-03-17T06:14:32;2.60;99.90
23744;DHT22;12052;53.478;10.182;2024-03-17T06:16:59;2.60;99.90
23744;DHT22;12052;53.478;10.182;2024-03-17T06:19:25;2.60;99.90
23744;DHT22;12052;53.478;10.182;2024-03-17T06:21:50;2.70;99.90
23744;DHT22;12052;53.478;10.182;2024-03-17T06:24:16;2.70;99.90
23744;DHT22;12052;53.478;10.182;2024-03-17T06:26:42;2.80;99.90
23744;DHT22;12052;53.478;10.182;2024-03-17T06:29:08;2.90;99.90
23744;DHT22;12052;53.478;10.182;2024-03-17T06:31:33;3.00;99.90
23744;DHT22;12052;53.478;10.182;2024-03-17T06:33:59;3.20;99.90
23744;DHT22;12052;53.478;10.182;2024-03-17T06:36:24;3.40;99.90
23744;DHT22;12052;53.478;10.182;2024-03-17T06:38:50;3.70;99.90
23744;DHT22;12052;53.478;10.182;2024-03-17T06:41:16;4.00;99.90
23744;DHT22;12052;53.478;10.182;2024-03-17T06:43:42;4.20;99.90
23744;DHT22;12052;53.478;10.182;2024-03-17T06:46:08;4.40;99.90
23744;DHT22;12052;53.478;10.182;2024-03-17T06:48:34;4.50;99.90
23744;DHT22;12052;53.478;10.182;2024-03-17T06:51:00;4.80;99.90
23744;DHT22;12052;53.478;10.182;2024-03-17T06:53:26;5.00;99.90
23744;DHT22;12052;53.478;10.182;2024-03-17T06:55:53;5.20;99.90
23744;DHT22;12052;53.478;10.182;2024-03-17T06:58:19;5.30;99.90
23744;DHT22;12052;53.478;10.182;2024-03-17T07:00:59;5.60;99.90
23744;DHT22;12052;53.478;10.182;2024-03-17T07:03:29;5.70;99.90
23744;DHT22;12052;53.478;10.182;2024-03-17T07:05:57;5.80;99.90
23744;DHT22;12052;53.478;10.182;2024-03-17T07:08:23;6.00;99.90
23744;DHT22;12052;53.478;10.182;2024-03-17T07:11:19;6.10;99.90
23744;DHT22;12052;53.478;10.182;2024-03-17T07:13:49;6.00;99.90
23744;DHT22;12052;53.478;10.182;2024-03-17T07:16:16;6.10;99.90
23744;DHT22;12052;53.478;10.182;2024-03-17T07:18:43;6.40;99.90
23744;DHT22;12052;53.478;10.182;2024-03-17T07:21:10;6.50;99.90
23744;DHT22;12052;53.478;10.182;2024-03-17T07:23:36;6.70;99.90
23744;DHT22;12052;53.478;10.182;2024-03-17T07:26:02;7.00;99.90
23744;DHT22;12052;53.478;10.182;2024-03-17T07:28:30;6.80;99.90
23744;DHT22;12052;53.478;10.182;2024-03-17T07:30:58;6.80;99.90
23744;DHT22;12052;53.478;10.182;2024-03-17T07:33:24;6.80;99.90
23744;DHT22;12052;53.478;10.182;2024-03-17T07:35:50;6.90;99.90
23744;DHT22;12052;53.478;10.182;2024-03-17T07:38:16;7.30;99.90
23744;DHT22;12052;53.478;10.182;2024-03-17T07:40:43;7.50;99.90
23744;DHT22;12052;53.478;10.182;2024-03-17T07:43:09;7.70;99.90
23744;DHT22;12052;53.478;10.182;2024-03-17T07:45:34;7.90;99.90
23744;DHT22;12052;53.478;10.182;2024-03-17T07:48:00;8.10;99.90
23744;DHT22;12052;53.478;10.182;2024-03-17T07:50:26;8.20;99.90
23744;DHT22;12052;53.478;10.182;2024-03-17T07:52:52;8.20;99.90
23744;DHT22;12052;53.478;10.182;2024-03-17T07:55:18;7.90;99.90
23744;DHT22;12052;53.478;10.182;2024-03-17T07:57:43;7.90;99.90
23744;DHT22;12052;53.478;10.182;2024-03-17T08:00:09;8.20;99.90
23744;DHT22;12052;53.478;10.182;2024-03-17T08:02:47;8.10;99.90
23744;DHT22;12052;53.478;10.182;2024-03-17T08:05:12;8.10;99.90
23744;DHT22;12052;53.478;10.182;2024-03-17T08:07:39;8.00;99.90
23744;DHT22;12052;53.478;10.182;2024-03-17T08:10:05;7.90;99.90
23744;DHT22;12052;53.478;10.182;2024-03-17T08:12:31;8.00;99.90
23744;DHT22;12052;53.478;10.182;2024-03-17T08:14:57;8.20;99.90
23744;DHT22;12052;53.478;10.182;2024-03-17T08:17:22;8.20;99.90
23744;DHT22;12052;53.478;10.182;2024-03-17T08:19:48;8.40;99.90
23744;DHT22;12052;53.478;10.182;2024-03-17T08:22:14;8.70;99.90
23744;DHT22;12052;53.478;10.182;2024-03-17T08:24:40;8.70;99.90
23744;DHT22;12052;53.478;10.182;2024-03-17T08:27:05;8.80;99.90
23744;DHT22;12052;53.478;10.182;2024-03-17T08:29:32;8.60;99.90
23744;DHT22;12052;53.478;10.182;2024-03-17T08:31:58;8.60;99.90
23744;DHT22;12052;53.478;10.182;2024-03-17T08:34:24;8.70;99.90
23744;DHT22;12052;53.478;10.182;2024-03-17T08:36:50;8.40;99.90
23744;DHT22;12052;53.478;10.182;2024-03-17T08:39:16;8.30;99.90
23744;DHT22;12052;53.478;10.182;2024-03-17T08:41:42;8.50;99.90
23744;DHT22;12052;53.478;10.182;2024-03-17T08:44:09;8.70;99.90
23744;DHT22;12052;53.478;10.182;2024-03-17T08:46:35;8.90;99.90
23744;DHT22;12052;53.478;10.182;2024-03-17T08:49:01;9.20;99.90
23744;DHT22;12052;53.478;10.182;2024-03-17T08:51:26;9.30;99.90
23744;DHT22;12052;53.478;10.182;2024-03-17T08:53:53;9.40;99.90
23744;DHT22;12052;53.478;10.182;2024-03-17T08:56:18;9.10;99.90
23744;DHT22;12052;53.478;10.182;2024-03-17T08:58:46;8.80;99.90
23744;DHT22;12052;53.478;10.182;2024-03-17T09:01:13;8.80;99.90
23744;DHT22;12052;53.478;10.182;2024-03-17T09:03:40;8.90;99.90
23744;DHT22;12052;53.478;10.182;2024-03-17T09:06:17;9.10;99.90
23744;DHT22;12052;53.478;10.182;2024-03-17T09:08:44;9.00;99.90
23744;DHT22;12052;53.478;10.182;2024-03-17T09:11:13;9.10;99.90
23744;DHT22;12052;53.478;10.182;2024-03-17T09:13:39;9.10;99.90
23744;DHT22;12052;53.478;10.182;2024-03-17T09:16:05;9.20;99.90
23744;DHT22;12052;53.478;10.182;2024-03-17T09:18:32;9.80;99.90
23744;DHT22;12052;53.478;10.182;2024-03-17T09:21:04;10.00;99.90
23744;DHT22;12052;53.478;10.182;2024-03-17T09:23:31;10.00;99.90
23744;DHT22;12052;53.478;10.182;2024-03-17T09:26:07;10.10;99.90
23744;DHT22;12052;53.478;10.182;2024-03-17T09:28:41;10.10;99.90
23744;DHT22;12052;53.478;10.182;2024-03-17T09:31:07;10.20;99.90
23744;DHT22;12052;53.478;10.182;2024-03-17T09:33:35;10.60;99.90
23744;DHT22;12052;53.478;10.182;2024-03-17T09:36:03;10.90;99.90
23744;DHT22;12052;53.478;10.182;2024-03-17T09:38:29;11.20;99.90
23744;DHT22;12052;53.478;10.182;2024-03-17T09:40:55;11.00;99.90
23744;DHT22;12052;53.478;10.182;2024-03-17T09:43:24;11.20;99.90
23744;DHT22;12052;53.478;10.182;2024-03-17T09:45:51;11.20;99.90
23744;DHT22;12052;53.478;10.182;2024-03-17T09:48:23;11.30;99.90
23744;DHT22;12052;53.478;10.182;2024-03-17T09:50:59;11.10;99.90
23744;DHT22;12052;53.478;10.182;2024-03-17T09:55:57;10.60;99.90
23744;DHT22;12052;53.478;10.182;2024-03-17T09:58:23;10.50;99.90
23744;DHT22;12052;53.478;10.182;2024-03-17T10:00:48;10.10;99.90
23744;DHT22;12052;53.478;10.182;2024-03-17T10:03:39;10.20;99.90
23744;DHT22;12052;53.478;10.182;2024-03-17T10:06:09;10.10;99.90
23744;DHT22;12052;53.478;10.182;2024-03-17T10:11:06;10.10;99.90
23744;DHT22;12052;53.478;10.182;2024-03-17T10:13:32;10.50;99.90
23744;DHT22;12052;53.478;10.182;2024-03-17T10:15:57;10.50;99.90
23744;DHT22;12052;53.478;10.182;2024-03-17T10:18:23;10.20;99.90
23744;DHT22;12052;53.478;10.182;2024-03-17T10:20:49;9.90;99.90
23744;DHT22;12052;53.478;10.182;2024-03-17T10:23:20;10.10;99.90
23744;DHT22;12052;53.478;10.182;2024-03-17T10:25:46;10.10;99.90
23744;DHT22;12052;53.478;10.182;2024-03-17T10:28:13;9.90;99.90
23744;DHT22;12052;53.478;10.182;2024-03-17T10:30:39;10.00;99.90
23744;DHT22;12052;53.478;10.182;2024-03-17T10:33:07;10.60;99.90
23744;DHT22;12052;53.478;10.182;2024-03-17T10:35:36;10.70;99.90
23744;DHT22;12052;53.478;10.182;2024-03-17T10:38:07;10.90;99.90
23744;DHT22;12052;53.478;10.182;2024-03-17T10:40:34;11.20;99.90
23744;DHT22;12052;53.478;10.182;2024-03-17T10:43:01;11.20;99.90
23744;DHT22;12052;53.478;10.182;2024-03-17T10:45:29;11.40;99.90
23744;DHT22;12052;53.478;10.182;2024-03-17T10:47:59;11.40;99.90
23744;DHT22;12052;53.478;10.182;2024-03-17T10:50:30;11.50;99.90
23744;DHT22;12052;53.478;10.182;2024-03-17T10:53:01;11.50;99.90
23744;DHT22;12052;53.478;10.182;2024-03-17T10:55:31;11.40;99.90
23744;DHT22;12052;53.478;10.182;2024-03-17T10:57:59;11.10;99.90
23744;DHT22;12052;53.478;10.182;2024-03-17T11:00:26;10.90;99.90
23744;DHT22;12052;53.478;10.182;2024-03-17T11:02:55;11.00;99.90
23744;DHT22;12052;53.478;10.182;2024-03-17T11:07:54;10.90;99.90
23744;DHT22;12052;53.478;10.182;2024-03-17T11:10:28;11.10;99.90
23744;DHT22;12052;53.478;10.182;2024-03-17T11:12:55;10.80;99.90
23744;DHT22;12052;53.478;10.182;2024-03-17T11:17:53;10.80;99.90
23744;DHT22;12052;53.478;10.182;2024-03-17T11:20:29;10.90;99.90
23744;DHT22;12052;53.478;10.182;2024-03-17T11:22:57;10.70;99.90
23744;DHT22;12052;53.478;10.182;2024-03-17T11:27:54;10.90;99.90
23744;DHT22;12052;53.478;10.182;2024-03-17T11:38:52;10.80;99.90
23744;DHT22;12052;53.478;10.182;2024-03-17T11:41:37;10.80;99.90
23744;DHT22;12052;53.478;10.182;2024-03-17T11:52:00;10.20;99.90
23744;DHT22;12052;53.478;10.182;2024-03-17T11:54:28;10.10;99.90
23744;DHT22;12052;53.478;10.182;2024-03-17T11:56:56;10.00;99.90
23744;DHT22;12052;53.478;10.182;2024-03-17T11:59:25;10.20;99.90
23744;DHT22;12052;53.478;10.182;2024-03-17T12:01:51;9.90;99.90
23744;DHT22;12052;53.478;10.182;2024-03-17T12:04:19;10.10;99.90
23744;DHT22;12052;53.478;10.182;2024-03-17T12:06:50;10.00;99.90
23744;DHT22;12052;53.478;10.182;2024-03-17T12:09:29;10.10;99.90
23744;DHT22;12052;53.478;10.182;2024-03-17T12:12:03;10.10;99.90
23744;DHT22;12052;53.478;10.182;2024-03-17T12:14:38;10.10;99.90
23744;DHT22;12052;53.478;10.182;2024-03-17T12:17:07;10.20;99.90
23744;DHT22;12052;53.478;10.182;2024-03-17T12:19:33;10.20;99.90
23744;DHT22;12052;53.478;10.182;2024-03-17T12:22:00;10.30;99.90
23744;DHT22;12052;53.478;10.182;2024-03-17T12:24:31;10.20;99.90
23744;DHT22;12052;53.478;10.182;2024-03-17T12:26:58;10.40;99.90
23744;DHT22;12052;53.478;10.182;2024-03-17T12:29:35;10.20;99.90
23744;DHT22;12052;53.478;10.182;2024-03-17T12:32:17;10.30;99.90
23744;DHT22;12052;53.478;10.182;2024-03-17T12:34:44;10.40;99.90
23744;DHT22;12052;53.478;10.182;2024-03-17T12:37:22;10.50;99.90
23744;DHT22;12052;53.478;10.182;2024-03-17T12:39:48;10.70;99.90
23744;DHT22;12052;53.478;10.182;2024-03-17T12:44:48;10.90;99.90
23744;DHT22;12052;53.478;10.182;2024-03-17T12:47:16;11.00;99.90
23744;DHT22;12052;53.478;10.182;2024-03-17T12:49:53;11.00;99.90
23744;DHT22;12052;53.478;10.182;2024-03-17T12:52:31;10.60;99.90
23744;DHT22;12052;53.478;10.182;2024-03-17T12:55:00;10.70;99.90
23744;DHT22;12052;53.478;10.182;2024-03-17T12:57:46;10.70;99.90
23744;DHT22;12052;53.478;10.182;2024-03-17T13:00:30;10.70;99.90
23744;DHT22;12052;53.478;10.182;2024-03-17T13:03:06;10.80;99.90
23744;DHT22;12052;53.478;10.182;2024-03-17T13:05:35;10.90;99.90
23744;DHT22;12052;53.478;10.182;2024-03-17T13:08:03;10.50;99.90
23744;DHT22;12052;53.478;10.182;2024-03-17T13:10:30;10.50;99.90
23744;DHT22;12052;53.478;10.182;2024-03-17T13:13:05;10.60;99.90
23744;DHT22;12052;53.478;10.182;2024-03-17T13:15:33;10.60;99.90
23744;DHT22;12052;53.478;10.182;2024-03-17T13:18:02;10.50;99.90
23744;DHT22;12052;53.478;10.182;2024-03-17T13:20:29;10.60;99.90
23744;DHT22;12052;53.478;10.182;2024-03-17T13:22:56;10.40;99.90
23744;DHT22;12052;53.478;10.182;2024-03-17T13:25:24;10.30;99.90
23744;DHT22;12052;53.478;10.182;2024-03-17T13:27:52;10.30;99.90
23744;DHT22;12052;53.478;10.182;2024-03-17T13:30:20;10.20;99.90
23744;DHT22;12052;53.478;10.182;2024-03-17T13:32:48;10.30;99.90
23744;DHT22;12052;53.478;10.182;2024-03-17T13:35:17;10.40;99.90
23744;DHT22;12052;53.478;10.182;2024-03-17T13:37:48;10.40;99.90
23744;DHT22;12052;53.478;10.182;2024-03-17T13:40:15;10.50;99.90
23744;DHT22;12052;53.478;10.182;2024-03-17T13:42:51;10.50;99.90
23744;DHT22;12052;53.478;10.182;2024-03-17T13:45:18;10.40;99.90
23744;DHT22;12052;53.478;10.182;2024-03-17T13:47:49;10.50;99.90
23744;DHT22;12052;53.478;10.182;2024-03-17T13:50:16;10.50;99.90
23744;DHT22;12052;53.478;10.182;2024-03-17T13:52:42;10.60;99.90
23744;DHT22;12052;53.478;10.182;2024-03-17T13:55:13;10.50;99.90
23744;DHT22;12052;53.478;10.182;2024-03-17T13:57:39;10.50;99.90
23744;DHT22;12052;53.478;10.182;2024-03-17T14:00:06;10.50;99.90
23744;DHT22;12052;53.478;10.182;2024-03-17T14:02:33;10.20;99.90
23744;DHT22;12052;53.478;10.182;2024-03-17T14:04:59;10.20;99.90
23744;DHT22;12052;53.478;10.182;2024-03-17T14:07:25;10.30;99.90
23744;DHT22;12052;53.478;10.182;2024-03-17T14:09:50;10.40;99.90
23744;DHT22;12052;53.478;10.182;2024-03-17T14:12:16;10.30;99.90
23744;DHT22;12052;53.478;10.182;2024-03-17T14:14:42;10.50;99.90
23744;DHT22;12052;53.478;10.182;2024-03-17T14:17:09;10.50;99.90
23744;DHT22;12052;53.478;10.182;2024-03-17T14:19:34;10.50;99.90
23744;DHT22;12052;53.478;10.182;2024-03-17T14:22:00;10.40;99.90
23744;DHT22;12052;53.478;10.182;2024-03-17T14:24:26;10.30;99.90
23744;DHT22;12052;53.478;10.182;2024-03-17T14:26:52;10.20;99.90
23744;DHT22;12052;53.478;10.182;2024-03-17T14:29:18;10.20;99.90
23744;DHT22;12052;53.478;10.182;2024-03-17T14:31:43;10.10;99.90
23744;DHT22;12052;53.478;10.182;2024-03-17T14:34:10;10.20;99.90
23744;DHT22;12052;53.478;10.182;2024-03-17T14:36:37;10.30;99.90
23744;DHT22;12052;53.478;10.182;2024-03-17T14:39:03;10.30;99.90
23744;DHT22;12052;53.478;10.182;2024-03-17T14:41:29;10.20;99.90
23744;DHT22;12052;53.478;10.182;2024-03-17T14:43:56;10.20;99.90
23744;DHT22;12052;53.478;10.182;2024-03-17T14:46:22;10.20;99.90
23744;DHT22;12052;53.478;10.182;2024-03-17T14:48:48;10.30;99.90
23744;DHT22;12052;53.478;10.182;2024-03-17T14:51:19;10.20;99.90
23744;DHT22;12052;53.478;10.182;2024-03-17T14:53:46;10.30;99.90
23744;DHT22;12052;53.478;10.182;2024-03-17T14:56:18;10.40;99.90
23744;DHT22;12052;53.478;10.182;2024-03-17T14:58:44;10.30;99.90
23744;DHT22;12052;53.478;10.182;2024-03-17T15:01:11;10.30;99.90
23744;DHT22;12052;53.478;10.182;2024-03-17T15:03:37;10.20;99.90
23744;DHT22;12052;53.478;10.182;2024-03-17T15:06:09;10.20;99.90
23744;DHT22;12052;53.478;10.182;2024-03-17T15:08:34;10.20;99.90
23744;DHT22;12052;53.478;10.182;2024-03-17T15:11:00;10.20;99.90
23744;DHT22;12052;53.478;10.182;2024-03-17T15:13:26;10.20;99.90
23744;DHT22;12052;53.478;10.182;2024-03-17T15:15:52;10.20;99.90
23744;DHT22;12052;53.478;10.182;2024-03-17T15:18:20;10.20;99.90
23744;DHT22;12052;53.478;10.182;2024-03-17T15:20:52;10.20;99.90
23744;DHT22;12052;53.478;10.182;2024-03-17T15:23:18;10.10;99.90
23744;DHT22;12052;53.478;10.182;2024-03-17T15:25:44;10.10;99.90
23744;DHT22;12052;53.478;10.182;2024-03-17T15:28:09;10.10;99.90
23744;DHT22;12052;53.478;10.182;2024-03-17T15:30:37;10.10;99.90
23744;DHT22;12052;53.478;10.182;2024-03-17T15:33:03;10.10;99.90
23744;DHT22;12052;53.478;10.182;2024-03-17T15:35:28;10.20;99.90
23744;DHT22;12052;53.478;10.182;2024-03-17T15:37:56;10.20;99.90
23744;DHT22;12052;53.478;10.182;2024-03-17T15:40:23;10.10;99.90
23744;DHT22;12052;53.478;10.182;2024-03-17T15:42:49;10.10;99.90
23744;DHT22;12052;53.478;10.182;2024-03-17T15:45:16;10.20;99.90
23744;DHT22;12052;53.478;10.182;2024-03-17T15:47:44;10.10;99.90
23744;DHT22;12052;53.478;10.182;2024-03-17T15:50:10;10.20;99.90
23744;DHT22;12052;53.478;10.182;2024-03-17T15:52:36;10.10;99.90
23744;DHT22;12052;53.478;10.182;2024-03-17T15:55:02;9.90;99.90
23744;DHT22;12052;53.478;10.182;2024-03-17T15:57:31;9.80;99.90